sensor_id;sensor_type;location;lat;lon;timestamp;P1;durP1;ratioP1;P2;durP2;ratioP2
50086;SDS011;35967;50.718;7.050;2024-02-26T00:04:53;3.03;;;0.60;;
50086;SDS011;35967;50.718;7.050;2024-02-26T00:14:57;2.03;;;0.73;;
50086;SDS011;35967;50.718;7.050;2024-02-26T00:25:00;2.63;;;0.70;;
50086;SDS011;35967;50.718;7.050;2024-02-26T00:35:06;1.83;;;0.70;;
50086;SDS011;35967;50.718;7.050;2024-02-26T00:45:11;2.53;;;0.50;;
50086;SDS011;35967;50.718;7.050;2024-02-26T00:55:16;1.50;;;0.50;;
50086;SDS011;35967;50.718;7.050;2024-02-26T01:05:19;1.50;;;0.40;;
50086;SDS011;35967;50.718;7.050;2024-02-26T01:15:23;1.40;;;0.50;;
50086;SDS011;35967;50.718;7.050;2024-02-26T01:25:27;1.53;;;0.40;;
50086;SDS011;35967;50.718;7.050;2024-02-26T01:35:31;3.63;;;0.50;;
50086;SDS011;35967;50.718;7.050;2024-02-26T01:45:34;1.70;;;0.60;;
50086;SDS011;35967;50.718;7.050;2024-02-26T01:55:39;1.97;;;0.50;;
50086;SDS011;35967;50.718;7.050;2024-02-26T02:05:42;1.27;;;0.50;;
50086;SDS011;35967;50.718;7.050;2024-02-26T02:15:48;2.73;;;0.30;;
50086;SDS011;35967;50.718;7.050;2024-02-26T02:25:52;1.33;;;0.40;;
50086;SDS011;35967;50.718;7.050;2024-02-26T02:35:56;1.20;;;0.50;;
50086;SDS011;35967;50.718;7.050;2024-02-26T02:46:01;1.43;;;0.40;;
50086;SDS011;35967;50.718;7.050;2024-02-26T02:56:05;0.80;;;0.40;;
50086;SDS011;35967;50.718;7.050;2024-02-26T03:06:10;2.17;;;0.57;;
50086;SDS011;35967;50.718;7.050;2024-02-26T03:16:13;1.10;;;0.60;;
50086;SDS011;35967;50.718;7.050;2024-02-26T03:26:17;1.23;;;0.33;;
50086;SDS011;35967;50.718;7.050;2024-02-26T03:36:20;1.30;;;0.50;;
50086;SDS011;35967;50.718;7.050;2024-02-26T03:46:25;1.67;;;0.50;;
50086;SDS011;35967;50.718;7.050;2024-02-26T03:56:28;2.33;;;0.50;;
50086;SDS011;35967;50.718;7.050;2024-02-26T04:06:32;1.27;;;0.50;;
50086;SDS011;35967;50.718;7.050;2024-02-26T04:16:36;1.67;;;0.43;;
50086;SDS011;35967;50.718;7.050;2024-02-26T04:26:40;1.77;;;0.63;;
50086;SDS011;35967;50.718;7.050;2024-02-26T04:36:44;2.63;;;0.60;;
50086;SDS011;35967;50.718;7.050;2024-02-26T04:46:51;2.07;;;0.60;;
50086;SDS011;35967;50.718;7.050;2024-02-26T04:56:54;4.60;;;1.07;;
50086;SDS011;35967;50.718;7.050;2024-02-26T05:06:58;2.27;;;0.90;;
50086;SDS011;35967;50.718;7.050;2024-02-26T05:17:02;3.20;;;0.60;;
50086;SDS011;35967;50.718;7.050;2024-02-26T05:27:06;1.60;;;0.70;;
50086;SDS011;35967;50.718;7.050;2024-02-26T05:37:09;2.70;;;0.70;;
50086;SDS011;35967;50.718;7.050;2024-02-26T05:47:14;1.40;;;0.60;;
50086;SDS011;35967;50.718;7.050;2024-02-26T05:57:18;3.33;;;0.70;;
50086;SDS011;35967;50.718;7.050;2024-02-26T06:07:23;1.53;;;0.90;;
50086;SDS011;35967;50.718;7.050;2024-02-26T06:17:26;3.17;;;0.90;;
50086;SDS011;35967;50.718;7.050;2024-02-26T06:27:31;1.40;;;0.70;;
50086;SDS011;35967;50.718;7.050;2024-02-26T06:37:35;3.37;;;1.00;;
50086;SDS011;35967;50.718;7.050;2024-02-26T06:47:40;4.00;;;1.27;;
50086;SDS011;35967;50.718;7.050;2024-02-26T06:57:44;3.27;;;0.83;;
50086;SDS011;35967;50.718;7.050;2024-02-26T07:07:48;3.37;;;1.30;;
50086;SDS011;35967;50.718;7.050;2024-02-26T07:17:52;3.53;;;1.20;;
50086;SDS011;35967;50.718;7.050;2024-02-26T07:27:56;5.53;;;1.40;;
50086;SDS011;35967;50.718;7.050;2024-02-26T07:37:59;2.63;;;1.20;;
50086;SDS011;35967;50.718;7.050;2024-02-26T07:48:04;4.03;;;1.50;;
50086;SDS011;35967;50.718;7.050;2024-02-26T07:58:07;6.67;;;2.17;;
50086;SDS011;35967;50.718;7.050;2024-02-26T08:08:11;2.80;;;1.33;;
50086;SDS011;35967;50.718;7.050;2024-02-26T08:18:15;3.00;;;1.30;;
50086;SDS011;35967;50.718;7.050;2024-02-26T08:28:19;3.87;;;1.27;;
50086;SDS011;35967;50.718;7.050;2024-02-26T08:38:22;4.37;;;2.10;;
50086;SDS011;35967;50.718;7.050;2024-02-26T08:48:27;5.67;;;1.33;;
50086;SDS011;35967;50.718;7.050;2024-02-26T08:58:30;3.50;;;1.70;;
50086;SDS011;35967;50.718;7.050;2024-02-26T09:08:35;3.33;;;1.63;;
50086;SDS011;35967;50.718;7.050;2024-02-26T09:18:39;4.60;;;1.53;;
50086;SDS011;35967;50.718;7.050;2024-02-26T09:28:43;2.97;;;1.20;;
50086;SDS011;35967;50.718;7.050;2024-02-26T09:38:47;4.00;;;1.60;;
50086;SDS011;35967;50.718;7.050;2024-02-26T09:49:02;4.17;;;1.37;;
50086;SDS011;35967;50.718;7.050;2024-02-26T09:59:13;3.70;;;1.40;;
50086;SDS011;35967;50.718;7.050;2024-02-26T10:09:20;2.77;;;1.50;;
50086;SDS011;35967;50.718;7.050;2024-02-26T10:19:25;4.87;;;1.60;;
50086;SDS011;35967;50.718;7.050;2024-02-26T10:29:30;3.23;;;1.70;;
50086;SDS011;35967;50.718;7.050;2024-02-26T10:39:35;3.80;;;1.33;;
50086;SDS011;35967;50.718;7.050;2024-02-26T10:49:44;4.43;;;1.90;;
50086;SDS011;35967;50.718;7.050;2024-02-26T11:09:55;4.00;;;1.60;;
50086;SDS011;35967;50.718;7.050;2024-02-26T11:19:59;3.43;;;1.70;;
50086;SDS011;35967;50.718;7.050;2024-02-26T11:30:08;4.40;;;1.70;;
50086;SDS011;35967;50.718;7.050;2024-02-26T11:40:12;5.73;;;1.70;;
50086;SDS011;35967;50.718;7.050;2024-02-26T12:00:39;4.80;;;1.77;;
50086;SDS011;35967;50.718;7.050;2024-02-26T12:10:44;5.87;;;2.53;;
50086;SDS011;35967;50.718;7.050;2024-02-26T12:20:56;4.90;;;2.43;;
50086;SDS011;35967;50.718;7.050;2024-02-26T12:31:02;5.53;;;2.23;;
50086;SDS011;35967;50.718;7.050;2024-02-26T12:41:06;5.20;;;2.40;;
50086;SDS011;35967;50.718;7.050;2024-02-26T12:51:11;6.93;;;3.07;;
50086;SDS011;35967;50.718;7.050;2024-02-26T13:01:15;5.33;;;2.23;;
50086;SDS011;35967;50.718;7.050;2024-02-26T13:11:22;6.70;;;2.13;;
50086;SDS011;35967;50.718;7.050;2024-02-26T13:21:25;7.00;;;2.80;;
50086;SDS011;35967;50.718;7.050;2024-02-26T13:31:31;6.07;;;2.77;;
50086;SDS011;35967;50.718;7.050;2024-02-26T13:41:45;4.00;;;1.90;;
50086;SDS011;35967;50.718;7.050;2024-02-26T13:51:49;5.03;;;1.70;;
50086;SDS011;35967;50.718;7.050;2024-02-26T14:01:53;4.97;;;2.40;;
50086;SDS011;35967;50.718;7.050;2024-02-26T14:11:57;9.00;;;2.33;;
50086;SDS011;35967;50.718;7.050;2024-02-26T14:22:02;8.70;;;3.13;;
50086;SDS011;35967;50.718;7.050;2024-02-26T14:32:06;6.97;;;2.70;;
50086;SDS011;35967;50.718;7.050;2024-02-26T14:42:10;11.30;;;3.77;;
50086;SDS011;35967;50.718;7.050;2024-02-26T14:52:15;11.50;;;3.60;;
50086;SDS011;35967;50.718;7.050;2024-02-26T15:02:18;7.80;;;3.47;;
50086;SDS011;35967;50.718;7.050;2024-02-26T15:12:22;12.80;;;3.90;;
50086;SDS011;35967;50.718;7.050;2024-02-26T15:22:32;9.00;;;3.47;;
50086;SDS011;35967;50.718;7.050;2024-02-26T15:32:37;8.40;;;4.90;;
50086;SDS011;35967;50.718;7.050;2024-02-26T15:42:40;11.90;;;4.80;;
50086;SDS011;35967;50.718;7.050;2024-02-26T15:52:44;12.53;;;7.07;;
50086;SDS011;35967;50.718;7.050;2024-02-26T16:02:47;9.93;;;5.77;;
50086;SDS011;35967;50.718;7.050;2024-02-26T16:12:53;10.13;;;5.87;;
50086;SDS011;35967;50.718;7.050;2024-02-26T16:22:58;13.13;;;5.63;;
50086;SDS011;35967;50.718;7.050;2024-02-26T16:33:07;11.03;;;6.00;;
50086;SDS011;35967;50.718;7.050;2024-02-26T16:43:12;10.13;;;6.33;;
50086;SDS011;35967;50.718;7.050;2024-02-26T16:53:17;13.20;;;6.17;;
50086;SDS011;35967;50.718;7.050;2024-02-26T17:03:20;13.33;;;5.93;;
50086;SDS011;35967;50.718;7.050;2024-02-26T17:13:25;11.70;;;6.87;;
50086;SDS011;35967;50.718;7.050;2024-02-26T17:23:30;16.30;;;6.30;;
50086;SDS011;35967;50.718;7.050;2024-02-26T17:33:35;11.50;;;6.83;;
50086;SDS011;35967;50.718;7.050;2024-02-26T17:43:38;26.60;;;14.90;;
50086;SDS011;35967;50.718;7.050;2024-02-26T17:53:44;20.23;;;11.67;;
50086;SDS011;35967;50.718;7.050;2024-02-26T18:03:47;21.47;;;12.03;;
50086;SDS011;35967;50.718;7.050;2024-02-26T18:13:54;22.10;;;13.60;;
50086;SDS011;35967;50.718;7.050;2024-02-26T18:23:58;21.70;;;12.40;;
50086;SDS011;35967;50.718;7.050;2024-02-26T18:34:03;21.13;;;12.80;;
50086;SDS011;35967;50.718;7.050;2024-02-26T18:44:06;20.67;;;11.63;;
50086;SDS011;35967;50.718;7.050;2024-02-26T18:54:11;22.67;;;12.90;;
50086;SDS011;35967;50.718;7.050;2024-02-26T19:04:14;20.47;;;11.23;;
50086;SDS011;35967;50.718;7.050;2024-02-26T19:14:19;18.33;;;12.13;;
50086;SDS011;35967;50.718;7.050;2024-02-26T19:24:22;22.17;;;12.93;;
50086;SDS011;35967;50.718;7.050;2024-02-26T19:34:27;21.80;;;12.90;;
50086;SDS011;35967;50.718;7.050;2024-02-26T19:44:30;20.57;;;11.97;;
50086;SDS011;35967;50.718;7.050;2024-02-26T19:54:36;21.07;;;11.50;;
50086;SDS011;35967;50.718;7.050;2024-02-26T20:04:39;14.50;;;10.13;;
50086;SDS011;35967;50.718;7.050;2024-02-26T20:14:44;19.30;;;10.10;;
50086;SDS011;35967;50.718;7.050;2024-02-26T20:24:47;16.77;;;10.20;;
50086;SDS011;35967;50.718;7.050;2024-02-26T20:34:52;15.23;;;9.63;;
50086;SDS011;35967;50.718;7.050;2024-02-26T20:44:55;18.50;;;10.90;;
50086;SDS011;35967;50.718;7.050;2024-02-26T20:55:00;16.20;;;10.47;;
50086;SDS011;35967;50.718;7.050;2024-02-26T21:05:03;22.33;;;12.00;;
50086;SDS011;35967;50.718;7.050;2024-02-26T21:15:09;18.87;;;12.53;;
50086;SDS011;35967;50.718;7.050;2024-02-26T21:25:12;21.00;;;13.17;;
50086;SDS011;35967;50.718;7.050;2024-02-26T21:35:17;23.20;;;14.07;;
50086;SDS011;35967;50.718;7.050;2024-02-26T21:45:20;19.13;;;14.00;;
50086;SDS011;35967;50.718;7.050;2024-02-26T21:55:25;21.03;;;15.47;;
50086;SDS011;35967;50.718;7.050;2024-02-26T22:05:29;20.27;;;13.93;;
50086;SDS011;35967;50.718;7.050;2024-02-26T22:15:34;20.97;;;12.20;;
50086;SDS011;35967;50.718;7.050;2024-02-26T22:25:37;15.57;;;10.00;;
50086;SDS011;35967;50.718;7.050;2024-02-26T22:35:42;19.70;;;10.13;;
50086;SDS011;35967;50.718;7.050;2024-02-26T22:45:45;18.13;;;9.80;;
50086;SDS011;35967;50.718;7.050;2024-02-26T22:55:49;14.13;;;8.23;;
50086;SDS011;35967;50.718;7.050;2024-02-26T23:05:55;11.70;;;6.97;;
50086;SDS011;35967;50.718;7.050;2024-02-26T23:16:00;9.83;;;6.20;;
50086;SDS011;35967;50.718;7.050;2024-02-26T23:26:04;11.90;;;5.70;;
50086;SDS011;35967;50.718;7.050;2024-02-26T23:36:08;8.10;;;4.87;;
50086;SDS011;35967;50.718;7.050;2024-02-26T23:46:11;16.63;;;5.87;;
50086;SDS011;35967;50.718;7.050;2024-02-26T23:56:16;10.43;;;4.97;;
